Terminal Aerodrome Forecast
Issued by NWS

Home | Current Version | Previous Version | Text Only | Print | Product List | Glossary On
Versions: 1 2 3 4 5 6 7 8 9 10 11 12 13 14 15 16 17 18
000
FTUS43 KILX 231100
TAFCMI
TAF
KCMI 231136Z 2312/2412 06009KT P6SM SCT100
     FM231700 09010KT P6SM SCT100 BKN250
     FM240400 10012KT P6SM BKN080=

USA.gov is the U.S. government's official web portal to all federal, state and local government web resources and services.